Shanghai Hongqiao International Airport
ZSSS : now visible

Airfield :











YOU CAN JOIN US ON...

 
LOGIN :

Register | Disclaimer

   EN    FR    IT 

 









Legend :    VFR   Marginal VFR   IFR   Intensive IFR   Very Intensive IFR
Visi :
Ceiling :
>= 8 km
>= 3000ft
5 to 8 km
1000 to 3000 ft
1500m to 5 km
500 to 1000 ft
800 to 1500m
200 to 500 ft
< 800m
< 200 ft
Symbols :   Thunderstorms  Fog  Heavy snow  Heavy precipitations  Wind > 20 kt







- Airport Elevation : 10 ft
- IATA code : SHA


ZSSS - Shanghai Hongqiao International

CURRENT METAR :
  • 261600Z 02002MPS CAVOK 10/05 Q1021 NOSIG

EXPIRED METARs :
  • 261530Z 03003MPS CAVOK 11/04 Q1022 NOSIG
  • 261500Z 03003MPS CAVOK 11/04 Q1022 NOSIG
  • 261430Z 04003MPS CAVOK 11/04 Q1022 NOSIG
  • 261400Z 03003MPS CAVOK 12/04 Q1022 NOSIG
  • 261330Z 03004MPS CAVOK 12/04 Q1023 NOSIG

TAF TAF ZSSS
Valid from the 26 at 12:00 until the 27 at 12:00 UTC


260913Z 2612/2712 04004MPS 6000 BKN023 TX18/2706Z TN11/2620Z
BECMG 2704/2706 10004MPS
ZSHA FIR / Asia



MET'MAP, your aeronautical weather chart ! - Copyright ORBIFLY December 2007 - Disclaimer

ORBIFLY MET'MAP TEAM :

Programming & Development : Alexandra Zaïnal
Concept & Development : Baudouin d'Aumeries
Co-Development & Prog : Marc-Olivier Méhu
Technical & hardware support : Manuel Goepfert

Contact : metmap@orbifly.com




SOURCES & CREDITS :

   NOAA       Earth
Advisory